Time;durP1;ratioP1;P1;durP2;ratioP2;P2;SDS_P1;SDS_P2;PMS_P1;PMS_P2;Temp;Humidity;BMP_temperature;BMP_pressure;BME280_temperature;BME280_humidity;BME280_pressure;Samples;Min_cycle;Max_cycle;Signal;HPM_P1;HPM_P2
2023/05/10 05:30:44;;;;;;;;;;;;;;;16.04;71.50;96756.72;4232120;27;10200;-77
2023/05/10 05:32:47;;;;;;;;;;;;;;;16.32;70.98;96753.41;4233051;28;5685;-77
2023/05/10 05:34:52;;;;;;;;;;;;;;;16.56;70.47;96760.38;4233229;28;5604;-77
2023/05/10 05:36:55;;;;;;;;;;;;;;;16.74;70.15;96764.81;4230845;28;5621;-78
2023/05/10 05:38:58;;;;;;;;;;;;;;;16.87;69.54;96757.41;4230584;28;6204;-78
2023/05/10 05:41:01;;;;;;;;;;;;;;;16.99;69.31;96762.72;4227544;28;5773;-78
2023/05/10 05:43:03;;;;;;;;;;;;;;;17.15;68.99;96774.53;4227187;28;5704;-78
2023/05/10 05:45:08;;;;;;;;;;;;;;;17.24;68.70;96769.66;4232537;28;5673;-78
2023/05/10 05:47:12;;;;;;;;;;;;;;;17.32;68.39;96771.94;4232935;28;5644;-78
2023/05/10 05:49:15;;;;;;;;;;;;;;;17.37;68.31;96762.19;4227612;28;5703;-77
2023/05/10 05:51:18;;;;;;;;;;;;;;;17.42;68.08;96770.28;4229586;28;5725;-78
2023/05/10 05:53:21;;;;;;;;;;;;;;;17.50;67.90;96771.78;4225606;28;5655;-78
2023/05/10 05:55:25;;;;;;;;;;;;;;;17.56;67.78;96770.84;4230468;28;5669;-78
2023/05/10 05:57:28;;;;;;;;;;;;;;;17.62;67.49;96769.06;4232459;28;5756;-77
2023/05/10 05:59:31;;;;;;;;;;;;;;;17.65;67.22;96765.91;4224017;28;5637;-78
2023/05/10 06:01:34;;;;;;;;;;;;;;;17.69;67.33;96769.78;4232342;28;5629;-78
2023/05/10 06:03:38;;;;;;;;;;;;;;;17.71;67.01;96767.69;4232433;28;5695;-78
2023/05/10 06:05:41;;;;;;;;;;;;;;;17.72;67.00;96766.63;4231372;28;6440;-78
2023/05/10 06:07:44;;;;;;;;;;;;;;;17.75;66.95;96771.47;4224677;28;5876;-78
2023/05/10 06:09:47;;;;;;;;;;;;;;;17.75;66.77;96756.25;4230966;28;8607;-78
2023/05/10 06:11:49;;;;;;;;;;;;;;;17.78;66.51;96763.00;4232285;28;5680;-79
2023/05/10 06:13:52;;;;;;;;;;;;;;;17.78;66.42;96760.34;4232094;28;5678;-78
2023/05/10 06:15:55;;;;;;;;;;;;;;;17.80;66.23;96766.25;4232152;28;5617;-77
2023/05/10 06:17:58;;;;;;;;;;;;;;;17.85;66.08;96770.88;4231877;28;5624;-77
2023/05/10 06:20:02;;;;;;;;;;;;;;;17.86;66.06;96769.81;4228298;28;5796;-78
2023/05/10 06:22:05;;;;;;;;;;;;;;;17.90;65.67;96768.31;4227218;28;5613;-78
2023/05/10 06:24:08;;;;;;;;;;;;;;;17.96;65.57;96767.31;4231694;28;5673;-78
2023/05/10 06:26:11;;;;;;;;;;;;;;;18.01;65.46;96770.91;4227531;28;5707;-79
2023/05/10 06:28:13;;;;;;;;;;;;;;;18.07;65.21;96773.66;4220239;28;5089;-79
2023/05/10 06:30:16;;;;;;;;;;;;;;;18.08;65.05;96772.63;4223201;28;5790;-79
2023/05/10 06:32:19;;;;;;;;;;;;;;;18.08;64.85;96765.41;4218039;28;5641;-78
2023/05/10 06:34:22;;;;;;;;;;;;;;;18.07;64.82;96771.00;4220067;28;5733;-79
2023/05/10 06:36:27;;;;;;;;;;;;;;;18.09;64.71;96774.22;4220706;28;6473;-78
2023/05/10 06:38:29;;;;;;;;;;;;;;;18.14;64.52;96777.00;4212232;28;5665;-79
2023/05/10 06:40:32;;;;;;;;;;;;;;;18.19;64.39;96777.09;4212126;28;5590;-79
2023/05/10 06:42:35;;;;;;;;;;;;;;;18.22;64.21;96779.28;4220608;28;5724;-79
2023/05/10 06:44:38;;;;;;;;;;;;;;;18.24;64.04;96777.19;4212371;28;5616;-79
2023/05/10 06:46:41;;;;;;;;;;;;;;;18.23;63.98;96765.69;4219978;28;5724;-79
2023/05/10 06:48:44;;;;;;;;;;;;;;;18.22;63.78;96768.56;4219981;28;5777;-78
2023/05/10 06:50:47;;;;;;;;;;;;;;;18.19;64.08;96777.09;4212008;28;5934;-78
2023/05/10 06:52:51;;;;;;;;;;;;;;;18.14;63.72;96777.00;4220309;28;5673;-79
2023/05/10 06:54:55;;;;;;;;;;;;;;;18.09;63.49;96782.25;4217977;28;5830;-78
2023/05/10 06:56:57;;;;;;;;;;;;;;;18.07;63.30;96782.50;4214382;28;5617;-78
2023/05/10 06:59:01;;;;;;;;;;;;;;;18.11;63.25;96780.97;4218015;28;5793;-78
2023/05/10 07:01:05;;;;;;;;;;;;;;;18.17;63.13;96784.56;4219795;28;5608;-79
2023/05/10 07:03:08;;;;;;;;;;;;;;;18.25;62.60;96784.16;4216883;28;5727;-78
2023/05/10 07:05:11;;;;;;;;;;;;;;;18.31;62.63;96780.50;4217762;28;5080;-77
2023/05/10 07:07:14;;;;;;;;;;;;;;;18.36;62.28;96775.25;4219834;28;5716;-77
2023/05/10 07:09:19;;;;;;;;;;;;;;;18.39;62.17;96773.94;4219302;28;5752;-78
2023/05/10 07:11:22;;;;;;;;;;;;;;;18.39;62.19;96776.63;4215629;28;5744;-77
2023/05/10 07:13:27;;;;;;;;;;;;;;;18.39;62.00;96779.31;4212321;28;5695;-77
2023/05/10 07:15:30;;;;;;;;;;;;;;;18.43;61.89;96785.78;4219382;28;5685;-77
2023/05/10 07:17:34;;;;;;;;;;;;;;;18.48;61.61;96783.19;4220271;28;5609;-77
2023/05/10 07:19:37;;;;;;;;;;;;;;;18.53;61.50;96785.94;4219537;28;5716;-77
2023/05/10 07:21:42;;;;;;;;;;;;;;;18.53;61.38;96792.13;4219933;28;5673;-78
2023/05/10 07:23:45;;;;;;;;;;;;;;;18.53;60.96;96800.16;4215347;28;5701;-78
2023/05/10 07:25:51;;;;;;;;;;;;;;;18.50;60.94;96792.59;4204694;28;5763;-78
2023/05/10 07:27:54;;;;;;;;;;;;;;;18.55;61.03;96797.22;4218154;28;5638;-77
2023/05/10 07:30:00;;;;;;;;;;;;;;;18.52;60.76;96787.81;4219669;28;5636;-77
2023/05/10 07:32:03;;;;;;;;;;;;;;;18.48;60.63;96801.94;4219843;28;5687;-78
2023/05/10 07:34:06;;;;;;;;;;;;;;;18.47;60.43;96798.44;4219072;28;5602;-77
2023/05/10 07:36:12;;;;;;;;;;;;;;;18.44;60.38;96793.56;4215286;28;5098;-78
2023/05/10 07:38:15;;;;;;;;;;;;;;;18.48;60.53;96794.72;4216369;28;5669;-78
2023/05/10 07:40:18;;;;;;;;;;;;;;;18.52;60.20;96800.38;4219817;28;5665;-78
2023/05/10 07:42:23;;;;;;;;;;;;;;;18.49;60.17;96799.03;4213060;28;5708;-78
2023/05/10 07:44:28;;;;;;;;;;;;;;;18.46;59.99;96804.88;4210080;28;5760;-78
2023/05/10 07:46:32;;;;;;;;;;;;;;;18.42;60.02;96801.03;4219786;28;5644;-78
2023/05/10 07:48:35;;;;;;;;;;;;;;;18.42;59.75;96810.94;4210986;28;5756;-78
2023/05/10 07:50:38;;;;;;;;;;;;;;;18.42;59.81;96806.38;4219104;28;5835;-78
2023/05/10 07:52:41;;;;;;;;;;;;;;;18.43;59.55;96805.31;4210939;28;5095;-78
2023/05/10 07:54:44;;;;;;;;;;;;;;;18.45;59.44;96807.75;4218519;28;5612;-78
2023/05/10 07:56:47;;;;;;;;;;;;;;;18.49;59.35;96809.72;4212457;28;5613;-78
2023/05/10 07:58:51;;;;;;;;;;;;;;;18.51;59.42;96807.59;4219136;28;5720;-77
2023/05/10 08:00:54;;;;;;;;;;;;;;;18.54;58.80;96809.78;4218176;28;5834;-77
2023/05/10 08:02:57;;;;;;;;;;;;;;;18.54;59.12;96807.13;4219255;28;5708;-77
2023/05/10 08:05:00;;;;;;;;;;;;;;;18.55;58.72;96810.59;4219206;28;5800;-76
2023/05/10 08:07:04;;;;;;;;;;;;;;;18.54;58.75;96808.97;4216619;28;5692;-77
2023/05/10 08:09:10;;;;;;;;;;;;;;;18.52;58.77;96809.22;4206815;28;5658;-71
2023/05/10 08:11:13;;;;;;;;;;;;;;;18.50;58.71;96813.22;4211200;28;5613;-81
2023/05/10 08:13:16;;;;;;;;;;;;;;;18.48;58.75;96807.28;4217406;28;5613;-80
2023/05/10 08:15:21;;;;;;;;;;;;;;;18.43;58.88;96802.66;4218470;28;5729;-81
2023/05/10 08:17:23;;;;;;;;;;;;;;;18.39;58.61;96798.03;4214225;28;5695;-83
2023/05/10 08:19:26;;;;;;;;;;;;;;;18.39;58.65;96811.41;4218195;28;5666;-80
2023/05/10 08:21:31;;;;;;;;;;;;;;;18.39;58.45;96806.06;4218570;28;5942;-76
2023/05/10 08:23:34;;;;;;;;;;;;;;;18.41;58.32;96810.13;4219283;28;5877;-81
2023/05/10 08:25:36;;;;;;;;;;;;;;;18.46;57.96;96809.38;4219717;28;5658;-81
2023/05/10 08:27:39;;;;;;;;;;;;;;;18.50;57.93;96810.53;4211445;28;5084;-80
2023/05/10 08:29:42;;;;;;;;;;;;;;;18.50;57.63;96807.84;4217232;28;5776;-82
2023/05/10 08:31:53;;;;;;;;;;;;;;;18.49;57.58;96808.91;4205502;28;5695;-81
2023/05/10 08:33:56;;;;;;;;;;;;;;;18.48;57.26;96804.63;4216813;28;5779;-73
2023/05/10 08:35:59;;;;;;;;;;;;;;;18.45;57.06;96813.91;4215519;28;5744;-80
2023/05/10 08:38:04;;;;;;;;;;;;;;;18.44;57.02;96814.97;4215944;28;5803;-84
2023/05/10 08:40:10;;;;;;;;;;;;;;;18.41;56.78;96810.13;4210265;28;7782;-76
2023/05/10 08:42:17;;;;;;;;;;;;;;;18.42;56.72;96817.09;4217221;28;5597;-72
2023/05/10 08:44:21;;;;;;;;;;;;;;;18.41;56.35;96810.13;4217464;28;5617;-74
2023/05/10 08:46:24;;;;;;;;;;;;;;;18.43;56.33;96808.00;4211893;28;5700;-72
2023/05/10 08:48:30;;;;;;;;;;;;;;;18.48;56.35;96815.31;4207270;28;5630;-76
2023/05/10 08:50:37;;;;;;;;;;;;;;;18.52;56.05;96811.91;4217971;28;5685;-76
2023/05/10 08:52:42;;;;;;;;;;;;;;;18.58;55.71;96827.00;4216988;28;5699;-76
2023/05/10 08:54:45;;;;;;;;;;;;;;;18.62;55.59;96821.97;4210512;28;5109;-76
2023/05/10 08:56:49;;;;;;;;;;;;;;;18.63;55.45;96823.59;4217440;28;5641;-76
2023/05/10 08:58:52;;;;;;;;;;;;;;;18.63;55.06;96819.06;4203706;28;6372;-76
2023/05/10 09:00:56;;;;;;;;;;;;;;;18.67;54.94;96821.25;4210244;28;5691;-76
2023/05/10 09:02:59;;;;;;;;;;;;;;;18.69;54.84;96828.03;4218432;28;5828;-77
2023/05/10 09:05:05;;;;;;;;;;;;;;;18.72;54.65;96827.53;4217539;28;5781;-76
2023/05/10 09:07:08;;;;;;;;;;;;;;;18.77;54.77;96826.78;4215478;28;5704;-76
2023/05/10 09:09:11;;;;;;;;;;;;;;;18.76;54.40;96825.97;4218444;28;5636;-77
2023/05/10 09:11:14;;;;;;;;;;;;;;;18.81;54.34;96833.28;4218123;28;5632;-78
2023/05/10 09:13:18;;;;;;;;;;;;;;;18.80;54.38;96827.13;4219167;28;5617;-82
2023/05/10 09:15:24;;;;;;;;;;;;;;;18.80;54.46;96823.59;4222014;28;5779;-77
2023/05/10 09:17:29;;;;;;;;;;;;;;;18.84;54.72;96832.78;4213257;28;5699;-77
2023/05/10 09:19:32;;;;;;;;;;;;;;;18.87;54.46;96835.78;4213582;28;5641;-77
2023/05/10 09:21:38;;;;;;;;;;;;;;;18.87;54.33;96834.97;4216887;28;6322;-78
2023/05/10 09:23:43;;;;;;;;;;;;;;;18.83;54.57;96839.22;4211069;28;5703;-77
2023/05/10 09:26:04;;;;;;;;;;;;;;;18.79;54.62;96827.34;4210538;28;5645;-78
2023/05/10 09:28:08;;;;;;;;;;;;;;;18.76;54.27;96831.31;4217413;28;5813;-76
2023/05/10 09:30:12;;;;;;;;;;;;;;;18.79;54.38;96832.69;4213202;28;5926;-75
2023/05/10 09:32:16;;;;;;;;;;;;;;;18.82;54.55;96835.72;4206369;28;5061;-76
2023/05/10 09:34:21;;;;;;;;;;;;;;;18.85;54.24;96827.19;4209899;28;5704;-75
2023/05/10 09:36:24;;;;;;;;;;;;;;;18.87;53.83;96825.06;4208824;28;5774;-77
2023/05/10 09:38:28;;;;;;;;;;;;;;;18.92;53.97;96828.91;4212115;28;6334;-78
2023/05/10 09:40:32;;;;;;;;;;;;;;;18.92;53.77;96828.91;4208421;28;5624;-77
2023/05/10 09:42:35;;;;;;;;;;;;;;;18.90;53.41;96835.28;4209602;28;5690;-77
2023/05/10 09:44:40;;;;;;;;;;;;;;;18.90;53.54;96829.94;4203652;28;5778;-77
2023/05/10 09:46:43;;;;;;;;;;;;;;;18.90;53.51;96837.16;4209013;28;5720;-79
2023/05/10 09:48:48;;;;;;;;;;;;;;;18.88;53.20;96829.38;4212563;28;5823;-78
2023/05/10 09:50:58;;;;;;;;;;;;;;;18.89;52.77;96832.84;4218053;28;5707;-78
2023/05/10 09:53:03;;;;;;;;;;;;;;;18.88;52.87;96840.09;4215077;28;5712;-79
2023/05/10 09:55:08;;;;;;;;;;;;;;;18.88;52.71;96836.59;4212922;28;5887;-78
2023/05/10 09:57:20;;;;;;;;;;;;;;;18.82;52.51;96833.03;4209497;28;6541;-79
2023/05/10 09:59:27;;;;;;;;;;;;;;;18.83;52.42;96836.53;4215581;28;5731;-78
2023/05/10 10:01:30;;;;;;;;;;;;;;;18.81;52.62;96835.97;4217725;28;5747;-77
2023/05/10 10:03:33;;;;;;;;;;;;;;;18.81;52.31;96835.97;4217656;28;5628;-77
2023/05/10 10:05:36;;;;;;;;;;;;;;;18.85;52.39;96837.09;4218101;28;6479;-77
2023/05/10 10:07:40;;;;;;;;;;;;;;;18.88;52.29;96831.25;4212766;28;6381;-76
2023/05/10 10:09:45;;;;;;;;;;;;;;;18.85;52.25;96832.56;4219999;28;5715;-77
2023/05/10 10:11:50;;;;;;;;;;;;;;;18.85;52.32;96837.09;4213993;28;5640;-77
2023/05/10 10:13:53;;;;;;;;;;;;;;;18.77;52.17;96830.28;4220913;28;5839;-77
2023/05/10 10:15:58;;;;;;;;;;;;;;;18.68;52.21;96823.69;4210190;28;5707;-77
2023/05/10 10:18:03;;;;;;;;;;;;;;;18.60;52.13;96824.91;4207167;28;6285;-77
2023/05/10 10:20:10;;;;;;;;;;;;;;;18.54;52.22;96828.53;4216400;28;5680;-78
2023/05/10 10:22:14;;;;;;;;;;;;;;;18.50;52.04;96830.09;4210508;28;5787;-78
2023/05/10 10:24:17;;;;;;;;;;;;;;;18.47;51.90;96825.22;4215331;28;5763;-77
2023/05/10 10:26:22;;;;;;;;;;;;;;;18.44;52.01;96820.31;4216047;28;5891;-76
2023/05/10 10:28:37;;;;;;;;;;;;;;;18.46;51.84;96823.59;4221819;28;5632;-77
2023/05/10 10:30:43;;;;;;;;;;;;;;;18.48;51.80;96826.84;4204515;28;5775;-77
2023/05/10 10:33:12;;;;;;;;;;;;;;;18.49;51.61;96825.78;4220498;28;5624;-78
2023/05/10 10:35:31;;;;;;;;;;;;;;;18.52;51.45;96838.69;4220725;28;5681;-78
2023/05/10 10:37:47;;;;;;;;;;;;;;;18.49;51.53;96833.00;4204721;28;5846;-77
2023/05/10 10:39:50;;;;;;;;;;;;;;;18.41;51.29;96820.81;4220640;28;5736;-77
2023/05/10 10:41:55;;;;;;;;;;;;;;;18.37;51.20;96827.72;4209643;28;8484;-78
2023/05/10 10:44:25;;;;;;;;;;;;;;;18.37;51.21;96833.06;4214641;28;5844;-76
2023/05/10 10:46:29;;;;;;;;;;;;;;;18.36;51.01;96823.44;4224357;28;6209;-77
2023/05/10 10:48:32;;;;;;;;;;;;;;;18.34;50.99;96820.97;4222150;28;5705;-77
2023/05/10 10:50:45;;;;;;;;;;;;;;;18.34;50.97;96825.50;4220075;28;5689;-78
2023/05/10 10:52:49;;;;;;;;;;;;;;;18.34;50.78;96814.81;4211954;28;5680;-78
2023/05/10 10:54:53;;;;;;;;;;;;;;;18.32;50.79;96819.59;4213809;28;5621;-77
2023/05/10 10:57:14;;;;;;;;;;;;;;;18.36;50.43;96823.44;4217872;28;5632;-77
2023/05/10 10:59:29;;;;;;;;;;;;;;;18.39;50.37;96827.47;4210200;28;5621;-77
2023/05/10 11:01:34;;;;;;;;;;;;;;;18.34;50.20;96815.63;4202223;28;5835;-77
2023/05/10 11:03:40;;;;;;;;;;;;;;;18.31;50.08;96823.31;4211718;28;5752;-77
2023/05/10 11:05:46;;;;;;;;;;;;;;;18.34;50.08;96815.63;4211896;28;5681;-77
2023/05/10 11:07:53;;;;;;;;;;;;;;;18.37;50.07;96822.38;4203558;28;5782;-78
2023/05/10 11:09:56;;;;;;;;;;;;;;;18.38;49.96;96821.31;4215291;28;6371;-77
2023/05/10 11:12:00;;;;;;;;;;;;;;;18.42;50.06;96814.41;4215700;28;5699;-77
2023/05/10 11:14:05;;;;;;;;;;;;;;;18.46;49.74;96806.69;4220534;28;5737;-79
2023/05/10 11:16:14;;;;;;;;;;;;;;;18.47;49.74;96814.50;4221250;28;5678;-77
2023/05/10 11:18:19;;;;;;;;;;;;;;;18.48;49.62;96816.13;4217378;28;5609;-78
2023/05/10 11:20:24;;;;;;;;;;;;;;;18.52;49.90;96814.59;4199336;28;5735;-77
2023/05/10 11:22:28;;;;;;;;;;;;;;;18.52;49.76;96806.56;4220978;28;5622;-77
2023/05/10 11:24:31;;;;;;;;;;;;;;;18.52;49.53;96805.75;4220402;28;5628;-78
2023/05/10 11:26:36;;;;;;;;;;;;;;;18.54;49.88;96808.97;4211608;28;5648;-78
2023/05/10 11:28:42;;;;;;;;;;;;;;;18.58;49.60;96810.94;4220040;28;5637;-77
2023/05/10 11:30:45;;;;;;;;;;;;;;;18.61;49.51;96807.78;4213831;28;5621;-77
2023/05/10 11:32:50;;;;;;;;;;;;;;;18.62;49.63;96814.75;4220784;28;5617;-78
2023/05/10 11:34:53;;;;;;;;;;;;;;;18.61;49.41;96805.09;4220772;28;5703;-79
2023/05/10 11:36:57;;;;;;;;;;;;;;;18.61;49.33;96806.97;4211147;28;5766;-77
2023/05/10 11:39:00;;;;;;;;;;;;;;;18.61;49.50;96810.47;4206211;28;5651;-78
2023/05/10 11:41:03;;;;;;;;;;;;;;;18.61;49.33;96807.78;4211117;28;5802;-77
2023/05/10 11:43:06;;;;;;;;;;;;;;;18.59;49.20;96801.06;4217516;28;5691;-78
2023/05/10 11:45:10;;;;;;;;;;;;;;;18.56;49.09;96814.91;4215337;28;5613;-76
2023/05/10 11:47:14;;;;;;;;;;;;;;;18.50;49.19;96818.56;4194216;28;5802;-76
2023/05/10 11:49:18;;;;;;;;;;;;;;;18.51;49.10;96810.28;4215812;28;5669;-77
2023/05/10 11:51:23;;;;;;;;;;;;;;;18.56;48.84;96810.34;4213596;28;5620;-78
2023/05/10 11:53:27;;;;;;;;;;;;;;;18.59;48.71;96819.78;4219191;28;5621;-78
2023/05/10 11:55:31;;;;;;;;;;;;;;;18.60;48.49;96819.53;4212260;28;5814;-79
2023/05/10 11:57:34;;;;;;;;;;;;;;;18.62;48.54;96817.44;4218509;28;6323;-78
2023/05/10 11:59:37;;;;;;;;;;;;;;;18.64;48.42;96806.50;4219317;28;5733;-78
2023/05/10 12:01:42;;;;;;;;;;;;;;;18.69;48.12;96813.78;4193357;28;5781;-77
2023/05/10 12:03:45;;;;;;;;;;;;;;;18.66;47.84;96804.38;4205481;28;5842;-78
2023/05/10 12:05:50;;;;;;;;;;;;;;;18.65;47.94;96804.63;4209078;28;5695;-77
2023/05/10 12:07:54;;;;;;;;;;;;;;;18.67;47.75;96807.88;4204264;28;6452;-79
2023/05/10 12:10:04;;;;;;;;;;;;;;;18.71;47.48;96811.72;4218816;28;5632;-77
2023/05/10 12:12:08;;;;;;;;;;;;;;;18.72;47.40;96810.66;4210869;28;5801;-76
2023/05/10 12:14:11;;;;;;;;;;;;;;;18.70;47.51;96813.56;4219892;28;5693;-77
2023/05/10 12:16:16;;;;;;;;;;;;;;;18.75;47.40;96815.50;4207278;28;5707;-77
2023/05/10 12:18:25;;;;;;;;;;;;;;;18.76;47.71;96811.78;4208619;28;5601;-76
2023/05/10 12:20:29;;;;;;;;;;;;;;;18.77;47.61;96819.56;4218884;28;5760;-76
2023/05/10 12:22:35;;;;;;;;;;;;;;;18.77;47.33;96818.75;4219057;28;6456;-77
2023/05/10 12:24:39;;;;;;;;;;;;;;;18.78;47.47;96813.16;4212473;28;5799;-76
2023/05/10 12:26:42;;;;;;;;;;;;;;;18.81;47.38;96818.03;4217684;28;5680;-76
2023/05/10 12:28:45;;;;;;;;;;;;;;;18.85;47.40;96823.69;4218836;28;5621;-77
2023/05/10 12:30:48;;;;;;;;;;;;;;;18.87;47.07;96816.22;4220199;28;5613;-77
2023/05/10 12:32:51;;;;;;;;;;;;;;;18.88;47.05;96821.34;4209967;28;5778;-75
2023/05/10 12:34:55;;;;;;;;;;;;;;;18.87;47.19;96818.91;4204136;28;5697;-76
2023/05/10 12:36:58;;;;;;;;;;;;;;;18.87;46.90;96818.91;4206426;28;5699;-77
2023/05/10 12:39:04;;;;;;;;;;;;;;;18.86;46.77;96817.28;4208036;28;5687;-77
2023/05/10 12:41:08;;;;;;;;;;;;;;;18.84;46.55;96814.84;4202790;28;5697;-77
2023/05/10 12:43:11;;;;;;;;;;;;;;;18.86;46.69;96822.66;4217350;28;5673;-77
2023/05/10 12:45:14;;;;;;;;;;;;;;;18.91;46.52;96814.66;4213081;28;5685;-77
2023/05/10 12:47:18;;;;;;;;;;;;;;;18.92;46.45;96816.31;4206843;28;5700;-76
2023/05/10 12:49:21;;;;;;;;;;;;;;;18.89;46.60;96811.44;4218238;28;5652;-76
2023/05/10 12:51:24;;;;;;;;;;;;;;;18.93;46.70;96820.63;4219625;28;5700;-77
2023/05/10 12:53:27;;;;;;;;;;;;;;;18.98;46.48;96819.88;4212911;28;5806;-76
2023/05/10 12:55:34;;;;;;;;;;;;;;;19.01;46.59;96816.69;4218820;28;5640;-77
2023/05/10 12:57:38;;;;;;;;;;;;;;;19.03;46.51;96825.31;4219373;28;5877;-77
2023/05/10 12:59:41;;;;;;;;;;;;;;;19.00;46.45;96823.13;4209778;28;5699;-78
2023/05/10 13:01:44;;;;;;;;;;;;;;;18.98;46.34;96823.38;4220275;28;5798;-77
2023/05/10 13:03:48;;;;;;;;;;;;;;;18.98;46.17;96819.88;4211340;28;5815;-76
2023/05/10 13:05:51;;;;;;;;;;;;;;;18.99;46.28;96819.63;4211910;28;5707;-77
2023/05/10 13:07:53;;;;;;;;;;;;;;;19.05;45.97;96825.88;4219473;28;5629;-77
2023/05/10 13:09:56;;;;;;;;;;;;;;;19.08;45.88;96820.03;4211298;28;5777;-76
2023/05/10 13:12:00;;;;;;;;;;;;;;;19.14;46.09;96819.88;4215758;28;5866;-77
2023/05/10 13:14:04;;;;;;;;;;;;;;;19.18;45.97;96822.84;4217283;28;5605;-76
2023/05/10 13:16:07;;;;;;;;;;;;;;;19.13;45.79;96818.22;4223977;28;5763;-77
2023/05/10 13:18:10;;;;;;;;;;;;;;;19.14;45.64;96824.38;4214401;28;5620;-76
2023/05/10 13:20:13;;;;;;;;;;;;;;;19.13;46.06;96817.41;4215681;28;5735;-77
2023/05/10 13:22:17;;;;;;;;;;;;;;;19.13;45.77;96820.09;4223990;28;5620;-77
2023/05/10 13:24:34;;;;;;;;;;;;;;;19.12;46.15;96821.94;4222198;28;5617;-76
2023/05/10 13:26:37;;;;;;;;;;;;;;;19.08;45.73;96815.47;4208265;28;5763;-76
2023/05/10 13:28:41;;;;;;;;;;;;;;;19.02;46.18;96816.44;4210116;28;5745;-76
2023/05/10 13:30:44;;;;;;;;;;;;;;;18.94;46.21;96819.56;4218079;28;5634;-77
2023/05/10 13:32:48;;;;;;;;;;;;;;;18.89;46.22;96822.97;4213735;28;5699;-77
2023/05/10 13:34:51;;;;;;;;;;;;;;;18.87;46.24;96818.91;4222442;28;5608;-77
2023/05/10 13:36:55;;;;;;;;;;;;;;;18.87;46.35;96825.06;4217993;28;5637;-77
2023/05/10 13:38:58;;;;;;;;;;;;;;;18.88;46.32;96831.25;4218438;28;5616;-77
2023/05/10 13:41:01;;;;;;;;;;;;;;;18.89;46.23;96827.50;4217322;28;5687;-77
2023/05/10 13:43:04;;;;;;;;;;;;;;;18.92;46.26;96818.19;4216900;28;5711;-77
2023/05/10 13:45:11;;;;;;;;;;;;;;;18.95;46.26;96821.19;4221166;28;7149;-78
2023/05/10 13:47:15;;;;;;;;;;;;;;;18.97;46.17;96821.75;4204963;28;5816;-77
2023/05/10 13:49:18;;;;;;;;;;;;;;;18.96;46.09;96820.13;4213165;28;5839;-77
2023/05/10 13:51:21;;;;;;;;;;;;;;;18.96;46.01;96816.63;4218577;28;5628;-76
2023/05/10 13:53:24;;;;;;;;;;;;;;;18.90;45.89;96813.88;4221235;28;6456;-77
2023/05/10 13:55:27;;;;;;;;;;;;;;;18.91;45.92;96820.03;4223107;28;5614;-78
2023/05/10 13:57:30;;;;;;;;;;;;;;;18.94;45.84;96814.22;4212613;28;5669;-77
2023/05/10 13:59:33;;;;;;;;;;;;;;;18.91;46.15;96812.00;4205301;28;5715;-78
2023/05/10 14:01:38;;;;;;;;;;;;;;;18.89;46.26;96814.13;4212812;28;5703;-77
2023/05/10 14:03:41;;;;;;;;;;;;;;;18.79;46.07;96811.28;4211766;28;5100;-79
2023/05/10 14:05:44;;;;;;;;;;;;;;;18.78;46.29;96817.69;4213084;28;5865;-77
2023/05/10 14:07:47;;;;;;;;;;;;;;;18.80;46.09;96807.53;4219570;28;5605;-77
2023/05/10 14:09:50;;;;;;;;;;;;;;;18.78;45.96;96805.09;4220996;28;5759;-78
2023/05/10 14:11:53;;;;;;;;;;;;;;;18.81;45.76;96818.03;4208950;28;5636;-78
2023/05/10 14:13:56;;;;;;;;;;;;;;;18.78;45.86;96812.34;4212423;28;5695;-78
2023/05/10 14:16:00;;;;;;;;;;;;;;;18.75;46.02;96816.31;4221289;28;5788;-78
2023/05/10 14:18:04;;;;;;;;;;;;;;;18.74;45.97;96808.53;4209457;28;5751;-78
2023/05/10 14:20:09;;;;;;;;;;;;;;;18.75;46.12;96812.84;4212746;28;5711;-77
2023/05/10 14:22:12;;;;;;;;;;;;;;;18.77;46.12;96811.53;4219717;28;5620;-76
2023/05/10 14:24:15;;;;;;;;;;;;;;;18.78;46.19;96820.38;4218511;28;5787;-78
2023/05/10 14:26:18;;;;;;;;;;;;;;;18.82;46.31;96802.78;4210394;28;6452;-78
2023/05/10 14:28:22;;;;;;;;;;;;;;;18.86;46.26;96817.28;4217672;28;5080;-77
2023/05/10 14:30:25;;;;;;;;;;;;;;;18.89;46.24;96814.13;4213214;28;6325;-77
2023/05/10 14:32:29;;;;;;;;;;;;;;;18.92;46.15;96813.66;4195796;28;5822;-77
2023/05/10 14:34:33;;;;;;;;;;;;;;;18.92;46.27;96813.66;4212786;28;6496;-77
2023/05/10 14:36:36;;;;;;;;;;;;;;;18.92;46.30;96818.19;4211741;28;5799;-78
2023/05/10 14:38:39;;;;;;;;;;;;;;;18.88;46.04;96801.78;4216134;28;5842;-77
2023/05/10 14:40:43;;;;;;;;;;;;;;;18.90;46.31;96815.72;4215586;28;5692;-78
2023/05/10 14:42:46;;;;;;;;;;;;;;;18.89;46.02;96811.44;4216674;28;5652;-77
2023/05/10 14:44:49;;;;;;;;;;;;;;;18.89;46.26;96811.44;4208152;28;5639;-77
2023/05/10 14:46:52;;;;;;;;;;;;;;;18.92;46.33;96816.31;4216561;28;5612;-78
2023/05/10 14:48:55;;;;;;;;;;;;;;;18.94;46.45;96814.22;4208676;28;5691;-77
2023/05/10 14:51:00;;;;;;;;;;;;;;;18.99;46.12;96818.81;4215432;28;5913;-76
2023/05/10 14:53:03;;;;;;;;;;;;;;;18.97;46.00;96808.34;4211556;28;5838;-77
2023/05/10 14:55:09;;;;;;;;;;;;;;;19.01;46.11;96814.00;4214080;28;5732;-76
2023/05/10 14:57:12;;;;;;;;;;;;;;;19.01;46.26;96809.47;4211506;28;5703;-77
2023/05/10 14:59:16;;;;;;;;;;;;;;;19.04;46.13;96817.03;4211822;28;5820;-76
2023/05/10 15:01:19;;;;;;;;;;;;;;;19.05;46.04;96810.63;4210543;28;5695;-77
2023/05/10 15:03:23;;;;;;;;;;;;;;;19.07;46.12;96818.41;4213262;28;5700;-76
2023/05/10 15:05:27;;;;;;;;;;;;;;;19.09;46.23;96819.78;4213065;28;5716;-76
2023/05/10 15:07:32;;;;;;;;;;;;;;;19.11;46.16;96814.16;4213096;28;5699;-76
2023/05/10 15:09:35;;;;;;;;;;;;;;;19.11;46.00;96820.34;4211750;28;5742;-76
2023/05/10 15:11:38;;;;;;;;;;;;;;;19.12;46.23;96816.59;4212450;28;5605;-76
2023/05/10 15:13:41;;;;;;;;;;;;;;;19.10;45.91;96824.06;4212723;28;5620;-77
2023/05/10 15:15:44;;;;;;;;;;;;;;;19.06;45.88;96817.59;4208021;28;5715;-76
2023/05/10 15:17:48;;;;;;;;;;;;;;;18.99;46.08;96814.25;4213092;28;5676;-76
2023/05/10 15:19:51;;;;;;;;;;;;;;;18.99;46.03;96824.97;4211247;28;5717;-76
2023/05/10 15:21:55;;;;;;;;;;;;;;;18.98;46.31;96822.56;4213663;28;5745;-76
2023/05/10 15:23:59;;;;;;;;;;;;;;;18.97;46.29;96813.72;4205230;28;5845;-77
2023/05/10 15:26:02;;;;;;;;;;;;;;;18.95;46.06;96818.50;4204782;28;5703;-78
2023/05/10 15:28:06;;;;;;;;;;;;;;;18.95;46.06;96826.53;4213126;28;5613;-77
2023/05/10 15:30:10;;;;;;;;;;;;;;;18.95;46.10;96820.38;4214317;28;5723;-77
2023/05/10 15:32:13;;;;;;;;;;;;;;;18.96;46.35;96820.13;4208090;28;5773;-78
2023/05/10 15:34:18;;;;;;;;;;;;;;;18.97;46.11;96818.25;4213956;28;5774;-76
2023/05/10 15:36:21;;;;;;;;;;;;;;;18.96;46.02;96825.47;4208352;28;5880;-75
2023/05/10 15:38:24;;;;;;;;;;;;;;;18.95;46.04;96825.72;4212440;28;5689;-75
2023/05/10 15:40:28;;;;;;;;;;;;;;;18.93;45.98;96823.31;4203304;28;5631;-75
2023/05/10 15:42:32;;;;;;;;;;;;;;;18.91;46.06;96822.72;4199960;28;5776;-75
2023/05/10 15:44:38;;;;;;;;;;;;;;;18.89;45.98;96827.50;4211496;28;5621;-75
2023/05/10 15:46:40;;;;;;;;;;;;;;;18.90;46.02;96819.22;4211639;28;5854;-77
2023/05/10 15:48:44;;;;;;;;;;;;;;;18.91;46.16;96828.06;4210137;28;5605;-76
2023/05/10 15:50:47;;;;;;;;;;;;;;;18.92;45.92;96820.88;4209794;28;5696;-76
2023/05/10 15:52:50;;;;;;;;;;;;;;;18.90;46.10;96826.44;4205547;28;5638;-76
2023/05/10 15:54:52;;;;;;;;;;;;;;;18.92;46.12;96826.22;4211300;28;5679;-76
2023/05/10 15:56:58;;;;;;;;;;;;;;;18.95;46.06;96818.50;4212708;28;5780;-77
2023/05/10 15:59:02;;;;;;;;;;;;;;;18.94;46.02;96824.91;4207368;28;5778;-76
2023/05/10 16:01:06;;;;;;;;;;;;;;;18.95;45.99;96831.09;4207384;28;5677;-76
2023/05/10 16:03:09;;;;;;;;;;;;;;;18.95;46.04;96826.53;4207813;28;6504;-76
2023/05/10 16:05:12;;;;;;;;;;;;;;;18.95;46.14;96828.41;4214891;28;5620;-76
2023/05/10 16:07:15;;;;;;;;;;;;;;;18.90;46.15;96829.13;4212969;28;5824;-76
2023/05/10 16:09:18;;;;;;;;;;;;;;;18.89;46.21;96832.84;4209480;28;7208;-76
2023/05/10 16:11:22;;;;;;;;;;;;;;;18.84;46.28;96825.56;4197597;28;5667;-77
2023/05/10 16:13:28;;;;;;;;;;;;;;;18.81;46.15;96830.63;4210145;28;6060;-77
2023/05/10 16:15:31;;;;;;;;;;;;;;;18.82;46.14;96832.22;4211198;28;6366;-76
2023/05/10 16:17:34;;;;;;;;;;;;;;;18.83;45.94;96833.84;4201337;28;5692;-76
2023/05/10 16:19:37;;;;;;;;;;;;;;;18.82;46.12;96829.56;4206708;28;5707;-77
2023/05/10 16:21:40;;;;;;;;;;;;;;;18.82;45.97;96832.22;4205715;28;5695;-75
2023/05/10 16:23:45;;;;;;;;;;;;;;;18.82;46.00;96832.22;4208495;28;5733;-76
2023/05/10 16:25:48;;;;;;;;;;;;;;;18.82;45.99;96837.59;4208166;28;5746;-76